Windermere, Florida
Current Conditions -  °F | °C
As of 11:53 AM on Wednesday 26 Nov 2014 (Local Time) from KORL Reporting Station
Light Rain Light Rain  
Wind Chill: 55°   Ceiling: 9000
Heat Index: 55°   Visibility: 10mi
Dew Point: 51°   Wind: 10mph
Humidity: 86%   Direction: 310°NW
Pressure: 30.14"   Gusts: NA
Location:  28.5°N, 81.53°W
Report Text: KORL 261653Z 31009KT 10SM -RA FEW012 BKN090 BKN110 13/11 A3014 RMK AO2 RAE24B46 SLP209 P0001 T01280106
Loading
Personal Weather Stations






























Interactive Weather Map New forecast layout! Learn more

10-Day Weather Forecast

Advertisements
Track Severe Weather on mobile